Weather History for Warsaw, IN

Change the Weather History Date:

Monday, February 18, 2013

  Actual Average Record
Temperature  
Mean Temperature 37 °F -  
Max Temperature 51 °F 37 °F 56 °F (2011)
Min Temperature 23 °F 20 °F -17 °F (1979)
Degree Days  
Heating Degree Days 28    
Moisture  
Dew Point 27 °F    
Average Humidity 65    
Maximum Humidity 93    
Minimum Humidity 50    
Precipitation  
Precipitation 0.09 in - - ()
Sea Level Pressure  
Sea Level Pressure 29.83 in    
Wind  
Wind Speed 8 mph (South)    
Max Wind Speed 15 mph    
Max Gust Speed 32 mph    
Visibility 10 miles    
Events Rain    
Averages and records for this station are not official NWS values.
T = Trace of Precipitation, MM = Missing Value Source: NWS Daily Summary

Daily Weather History Graph

Daily Weather History Graph

Search for Another Location

Airport:

Trip Planner

Search our weather history database for the weather conditions in past years. The results will help you decide how hot, cold, wet, or windy it might be!

Date:

Astronomy

Feb. 18, 2013 Rise Set
Actual Time 7:33 AM EST 6:21 PM EST
Civil Twilight 7:05 AM EST 6:49 PM EST
Nautical Twilight 6:33 AM EST 7:21 PM EST
Astronomical Twilight 6:01 AM EST 7:53 PM EST
Moon 12:05 PM EST (2/18) 2:14 AM EST (2/18)
Length of Visible Light 11h 43m
Length of Day
10h 47m
First Quarter, 58% of the Moon is Illuminated
Feb 18
First Quarter
Feb 25
Full
Mar 4
Last Quarter
Mar 11
New
Mar 19
First Quarter

Hourly Weather History & Observations

Time (EST) Temp. Windchill Dew Point Humidity Pressure Visibility Wind Dir Wind Speed Gust Speed Precip Events Conditions
12:15 AM 23.0 °F 18.4 °F 12.2 °F 63% 30.13 in 10.0 mi SSE 3.5 mph - N/A   Clear
12:35 AM 23.0 °F 17.0 °F 12.2 °F 63% 30.14 in 10.0 mi SE 4.6 mph - N/A   Clear
1:15 AM 23.0 °F 17.0 °F 12.2 °F 63% 30.12 in 10.0 mi SE 4.6 mph - N/A   Clear
1:35 AM 23.0 °F 15.8 °F 12.2 °F 63% 30.12 in 10.0 mi SE 5.8 mph - N/A   Clear
1:55 AM 23.0 °F 13.9 °F 12.2 °F 63% 30.12 in 10.0 mi SE 8.1 mph - N/A   Clear
2:15 AM 23.0 °F 14.7 °F 12.2 °F 63% 30.11 in 10.0 mi SSE 6.9 mph - N/A   Clear
2:35 AM 23.0 °F 14.7 °F 12.2 °F 63% 30.11 in 10.0 mi SSE 6.9 mph - N/A   Scattered Clouds
3:15 AM 24.8 °F 15.3 °F 12.2 °F 59% 30.08 in 10.0 mi SE 9.2 mph - N/A   Scattered Clouds
3:35 AM 24.8 °F 16.9 °F 12.2 °F 59% 30.07 in 10.0 mi SE 6.9 mph - N/A   Mostly Cloudy
3:55 AM 24.8 °F 16.9 °F 12.2 °F 59% 30.07 in 10.0 mi SSE 6.9 mph - N/A   Scattered Clouds
4:15 AM 24.8 °F 16.9 °F 12.2 °F 59% 30.06 in 10.0 mi SSE 6.9 mph - N/A   Clear
4:35 AM 24.8 °F 16.1 °F 12.2 °F 59% 30.04 in 10.0 mi SSE 8.1 mph - N/A   Clear
4:55 AM 26.6 °F 19.1 °F 12.2 °F 55% 30.03 in 10.0 mi SE 6.9 mph - N/A   Clear
5:15 AM 26.6 °F 19.1 °F 12.2 °F 55% 30.02 in 10.0 mi SE 6.9 mph - N/A   Clear
5:35 AM 26.6 °F 16.8 °F 12.2 °F 55% 30.01 in 10.0 mi SE 10.4 mph - N/A   Clear
5:55 AM 26.6 °F 17.5 °F 14.0 °F 59% 30.00 in 10.0 mi SSE 9.2 mph - N/A   Clear
6:35 AM 26.6 °F 17.5 °F 14.0 °F 59% 29.98 in 10.0 mi SE 9.2 mph - N/A   Clear
6:55 AM 28.4 °F 21.2 °F 14.0 °F 55% 29.96 in 10.0 mi SSE 6.9 mph - N/A   Clear
7:15 AM 28.4 °F 20.4 °F 14.0 °F 55% 29.96 in 10.0 mi SSE 8.1 mph - N/A   Clear
7:35 AM 28.4 °F 19.7 °F 14.0 °F 55% 29.95 in 10.0 mi SSE 9.2 mph - N/A   Clear
7:55 AM 28.4 °F 19.7 °F 14.0 °F 55% 29.94 in 10.0 mi SSE 9.2 mph - N/A   Clear
8:15 AM 28.4 °F 20.4 °F 15.8 °F 59% 29.94 in 10.0 mi SSE 8.1 mph - N/A   Clear
8:35 AM 30.2 °F 22.6 °F 15.8 °F 55% 29.94 in 10.0 mi South 8.1 mph 16.1 mph N/A   Clear
8:55 AM 32.0 °F 24.2 °F 17.6 °F 55% 29.93 in 10.0 mi SSE 9.2 mph - N/A   Clear
9:15 AM 32.0 °F 23.0 °F 17.6 °F 55% 29.92 in 10.0 mi South 11.5 mph 17.3 mph N/A   Clear
9:35 AM 33.8 °F 27.7 °F 19.4 °F 56% 29.91 in 10.0 mi SSE 6.9 mph - N/A   Clear
9:55 AM 33.8 °F 25.3 °F 21.2 °F 60% 29.90 in 10.0 mi South 11.5 mph 17.3 mph N/A   Clear
10:15 AM 37.4 °F 28.5 °F 23.0 °F 56% 29.90 in 10.0 mi South 15.0 mph 20.7 mph N/A   Clear
10:35 AM 37.4 °F 29.8 °F 23.0 °F 56% 29.89 in 10.0 mi South 11.5 mph 20.7 mph N/A   Clear
11:15 AM 41.0 °F 35.2 °F 26.6 °F 57% 29.87 in 10.0 mi South 9.2 mph 18.4 mph N/A   Clear
11:35 AM 41.0 °F 35.2 °F 26.6 °F 57% 29.87 in 10.0 mi South 9.2 mph 19.6 mph N/A   Clear
11:55 AM 42.8 °F 36.6 °F 28.4 °F 57% 29.85 in 10.0 mi South 11.5 mph 18.4 mph N/A   Clear
12:15 PM 44.6 °F 38.8 °F 30.2 °F 57% 29.84 in 10.0 mi South 11.5 mph 19.6 mph N/A   Clear
12:35 PM 46.4 °F 41.1 °F 30.2 °F 53% 29.83 in 10.0 mi South 11.5 mph 18.4 mph N/A   Clear
12:55 PM 46.4 °F 41.9 °F 32.0 °F 57% 29.83 in 10.0 mi South 9.2 mph 21.9 mph N/A   Clear
1:15 PM 48.2 °F - 32.0 °F 54% 29.82 in 10.0 mi South 11.5 mph 21.9 mph N/A   Clear
1:35 PM 50.0 °F - 32.0 °F 50% 29.80 in 10.0 mi South 10.4 mph 21.9 mph N/A   Clear
1:55 PM 50.0 °F - 32.0 °F 50% 29.79 in 10.0 mi South 8.1 mph 25.3 mph N/A   Clear
2:15 PM 51.8 °F - 33.8 °F 50% 29.78 in 10.0 mi South 10.4 mph 17.3 mph N/A   Clear
2:35 PM 51.8 °F - 35.6 °F 54% 29.77 in 10.0 mi South 10.4 mph 23.0 mph N/A   Clear
2:55 PM 51.8 °F - 35.6 °F 54% 29.75 in 10.0 mi SSW 10.4 mph 20.7 mph N/A   Scattered Clouds
3:15 PM 51.8 °F - 37.4 °F 58% 29.75 in 10.0 mi South 9.2 mph 19.6 mph N/A   Mostly Cloudy
3:35 PM 51.8 °F - 37.4 °F 58% 29.75 in 10.0 mi SSW 9.2 mph 17.3 mph N/A   Overcast
3:55 PM 50.0 °F - 37.4 °F 62% 29.73 in 10.0 mi South 10.4 mph 19.6 mph N/A   Light Drizzle
4:15 PM 50.0 °F - 41.0 °F 71% 29.73 in 10.0 mi South 8.1 mph - N/A Rain Light Rain
4:35 PM 46.4 °F 43.5 °F 39.2 °F 76% 29.73 in 10.0 mi South 5.8 mph - N/A Rain Light Rain
4:55 PM 46.4 °F 42.9 °F 39.2 °F 76% 29.71 in 10.0 mi South 6.9 mph - N/A   Overcast
5:15 PM 46.4 °F 43.5 °F 39.2 °F 76% 29.71 in 10.0 mi SSE 5.8 mph - N/A   Drizzle
5:35 PM 44.6 °F 43.1 °F 41.0 °F 87% 29.71 in 7.0 mi SSE 3.5 mph - N/A Rain Rain
5:55 PM 44.6 °F 42.2 °F 41.0 °F 87% 29.71 in 10.0 mi SSE 4.6 mph - 0.01 in Rain Light Rain
6:15 PM 44.6 °F 42.2 °F 41.0 °F 87% 29.70 in 7.0 mi South 4.6 mph - 0.01 in Rain Light Rain
6:35 PM 46.4 °F 42.4 °F 41.0 °F 81% 29.68 in 10.0 mi South 8.1 mph - 0.01 in   Light Drizzle
6:55 PM 50.0 °F - 37.4 °F 62% 29.69 in 10.0 mi SSW 13.8 mph 32.2 mph 0.01 in Rain Light Rain
7:15 PM 46.4 °F 40.1 °F 37.4 °F 71% 29.68 in 10.0 mi SSW 15.0 mph 32.2 mph N/A Rain Light Rain
7:35 PM 46.4 °F 41.1 °F 37.4 °F 71% 29.67 in 10.0 mi South 11.5 mph 23.0 mph N/A   Overcast
7:55 PM 46.4 °F 41.1 °F 37.4 °F 71% 29.66 in 10.0 mi South 11.5 mph 19.6 mph N/A   Overcast
8:15 PM 46.4 °F 40.7 °F 37.4 °F 71% 29.64 in 10.0 mi South 12.7 mph 26.5 mph N/A   Overcast
8:35 PM 46.4 °F 42.4 °F 37.4 °F 71% 29.63 in 10.0 mi South 8.1 mph 20.7 mph N/A   Overcast
8:55 PM 46.4 °F 41.5 °F 37.4 °F 71% 29.62 in 10.0 mi South 10.4 mph 26.5 mph N/A Rain Light Rain
9:15 PM 44.6 °F 39.7 °F 37.4 °F 76% 29.62 in 10.0 mi South 9.2 mph 23.0 mph N/A Rain Rain
9:35 PM 44.6 °F 39.2 °F 39.2 °F 81% 29.61 in 7.0 mi South 10.4 mph 18.4 mph 0.02 in Rain Rain
9:55 PM 42.8 °F 36.6 °F 39.2 °F 87% 29.60 in 7.0 mi South 11.5 mph 23.0 mph 0.04 in Rain Rain
10:15 PM 42.8 °F 36.2 °F 39.2 °F 87% 29.57 in 10.0 mi South 12.7 mph 24.2 mph N/A Rain Rain
10:35 PM 42.8 °F 35.8 °F 39.2 °F 87% 29.57 in 10.0 mi South 13.8 mph 23.0 mph N/A Rain Rain
10:55 PM 42.8 °F 36.2 °F 41.0 °F 93% 29.56 in 7.0 mi South 12.7 mph 27.6 mph 0.02 in Rain Light Rain
11:15 PM 42.8 °F 37.0 °F 41.0 °F 93% 29.55 in 10.0 mi South 10.4 mph 23.0 mph N/A Rain Light Rain
11:35 PM 42.8 °F 36.2 °F 41.0 °F 93% 29.53 in 10.0 mi South 12.7 mph 27.6 mph 0.01 in Rain Light Rain
11:55 PM 42.8 °F 36.2 °F 41.0 °F 93% 29.52 in 10.0 mi South 12.7 mph 28.8 mph 0.01 in Rain Light Rain